Time;durP1;ratioP1;P1;durP2;ratioP2;P2;SDS_P1;SDS_P2;PMS_P1;PMS_P2;Temp;Humidity;BMP_temperature;BMP_pressure;BME280_temperature;BME280_humidity;BME280_pressure;Samples;Min_cycle;Max_cycle;Signal;HPM_P1;HPM_P2
2021/04/11 00:02:10;;;;;;;1.90;1.70;;;22.80;27.70;;;;;;5025058;28;20441;-54
2021/04/11 00:04:36;;;;;;;2.27;1.40;;;22.90;28.00;;;;;;5031598;28;20209;-53
2021/04/11 00:07:02;;;;;;;1.97;1.40;;;22.90;28.00;;;;;;5019384;28;20202;-51
2021/04/11 00:09:27;;;;;;;1.87;1.30;;;22.90;28.00;;;;;;5031830;28;20213;-55
2021/04/11 00:11:53;;;;;;;1.73;1.57;;;22.80;27.90;;;;;;5030660;28;20514;-55
2021/04/11 00:14:19;;;;;;;3.00;1.70;;;22.80;27.90;;;;;;5031377;28;20205;-56
2021/04/11 00:16:45;;;;;;;3.85;1.85;;;22.80;27.90;;;;;;5030117;28;20209;-52
2021/04/11 00:19:11;;;;;;;1.90;1.50;;;22.80;27.90;;;;;;5032168;28;20273;-53
2021/04/11 00:21:37;;;;;;;2.40;1.87;;;22.80;27.90;;;;;;5030089;28;20647;-56
2021/04/11 00:24:03;;;;;;;2.13;1.53;;;22.80;27.90;;;;;;5029822;28;20222;-53
2021/04/11 00:26:29;;;;;;;2.70;1.90;;;22.80;27.90;;;;;;5031239;28;20196;-49
2021/04/11 00:28:55;;;;;;;2.13;1.93;;;22.80;27.90;;;;;;5030487;28;20213;-52
2021/04/11 00:31:21;;;;;;;1.80;1.60;;;22.80;27.90;;;;;;5031120;28;20216;-54
2021/04/11 00:33:47;;;;;;;2.93;1.70;;;22.80;27.90;;;;;;5030047;28;20225;-55
2021/04/11 00:36:13;;;;;;;2.10;1.60;;;22.80;27.90;;;;;;5029989;28;20207;-54
2021/04/11 00:38:39;;;;;;;3.20;1.60;;;22.80;27.90;;;;;;5030406;28;20997;-54
2021/04/11 00:41:05;;;;;;;2.03;1.30;;;22.80;27.90;;;;;;5029550;28;20201;-55
2021/04/11 00:43:31;;;;;;;2.00;1.80;;;22.80;27.90;;;;;;5029510;28;20256;-53
2021/04/11 00:45:57;;;;;;;1.60;1.50;;;22.80;27.90;;;;;;5029711;28;20199;-55
2021/04/11 00:48:22;;;;;;;2.07;1.83;;;22.80;27.90;;;;;;5029245;28;20659;-55
2021/04/11 00:50:48;;;;;;;2.97;1.90;;;22.80;27.90;;;;;;5029732;28;20552;-56
2021/04/11 00:53:14;;;;;;;3.10;1.77;;;22.80;27.90;;;;;;5030496;28;20229;-52
2021/04/11 00:55:40;;;;;;;2.30;1.50;;;22.80;27.90;;;;;;5031227;28;20205;-54
2021/04/11 00:58:06;;;;;;;2.50;1.57;;;22.80;27.90;;;;;;5028402;28;20219;-51
2021/04/11 01:00:32;;;;;;;1.70;1.40;;;22.80;27.90;;;;;;5030786;28;20209;-49
2021/04/11 01:02:58;;;;;;;5.80;1.40;;;22.80;27.90;;;;;;5029986;28;20224;-54
2021/04/11 01:05:24;;;;;;;1.80;1.43;;;22.80;27.90;;;;;;5030320;28;20655;-55
2021/04/11 01:07:50;;;;;;;2.33;1.50;;;22.80;27.90;;;;;;5030131;28;20202;-55
2021/04/11 01:10:16;;;;;;;2.67;1.50;;;22.80;27.90;;;;;;5029242;28;20216;-55
2021/04/11 01:12:42;;;;;;;3.03;1.50;;;22.80;27.90;;;;;;5029889;28;20279;-55
2021/04/11 01:15:08;;;;;;;1.40;1.27;;;22.80;27.90;;;;;;5031105;28;20209;-55
2021/04/11 01:17:34;;;;;;;2.10;1.30;;;22.80;27.90;;;;;;5029531;28;20596;-52
2021/04/11 01:20:01;;;;;;;2.00;1.70;;;22.80;27.90;;;;;;5029219;28;20206;-56
2021/04/11 01:22:27;;;;;;;1.47;1.30;;;22.80;27.90;;;;;;5029443;28;20220;-55
2021/04/11 01:24:52;;;;;;;2.70;1.73;;;22.80;27.90;;;;;;5030886;28;20212;-56
2021/04/11 01:27:18;;;;;;;1.43;1.33;;;22.80;27.90;;;;;;5025402;28;20217;-53
2021/04/11 01:29:44;;;;;;;1.53;1.43;;;22.80;27.90;;;;;;5028349;28;20206;-54
2021/04/11 01:32:10;;;;;;;2.20;1.33;;;22.80;27.90;;;;;;5030596;28;20229;-51
2021/04/11 01:34:36;;;;;;;1.87;1.50;;;22.80;27.90;;;;;;5029714;28;20195;-52
2021/04/11 01:37:02;;;;;;;2.50;1.50;;;22.80;28.10;;;;;;5029303;28;20214;-54
2021/04/11 01:39:28;;;;;;;2.23;1.80;;;22.80;28.70;;;;;;5018320;28;20252;-55
2021/04/11 01:41:54;;;;;;;2.80;1.40;;;22.80;28.60;;;;;;5030161;28;20352;-56
2021/04/11 01:44:20;;;;;;;3.10;1.50;;;22.80;28.60;;;;;;5028631;28;20653;-56
2021/04/11 01:46:48;;;;;;;2.13;1.50;;;22.80;28.10;;;;;;5029373;28;20245;-54
2021/04/11 01:49:14;;;;;;;1.67;1.43;;;22.80;27.90;;;;;;5030649;28;20211;-53
2021/04/11 01:51:40;;;;;;;1.50;1.40;;;22.80;27.90;;;;;;5029179;28;20199;-54
2021/04/11 01:54:06;;;;;;;1.63;1.30;;;22.80;28.10;;;;;;5030676;28;20625;-55
2021/04/11 01:56:31;;;;;;;2.63;1.57;;;22.80;27.90;;;;;;5029083;28;20202;-56
2021/04/11 01:58:57;;;;;;;2.87;1.40;;;22.80;27.90;;;;;;5030566;28;20222;-54
2021/04/11 02:01:23;;;;;;;1.40;1.30;;;22.80;27.90;;;;;;5028061;28;20214;-56
2021/04/11 02:03:49;;;;;;;1.60;1.20;;;22.80;28.40;;;;;;5026807;28;20229;-50
2021/04/11 02:06:15;;;;;;;2.17;1.40;;;22.80;27.90;;;;;;5030103;28;20649;-54
2021/04/11 02:08:41;;;;;;;1.67;1.40;;;22.80;27.90;;;;;;5029401;28;20198;-54
2021/04/11 02:11:07;;;;;;;1.70;1.60;;;22.80;27.90;;;;;;5030038;28;20203;-55
2021/04/11 02:13:33;;;;;;;1.40;1.30;;;22.80;27.90;;;;;;5029125;28;20256;-54
2021/04/11 02:15:59;;;;;;;2.80;1.30;;;22.80;27.90;;;;;;5029272;28;20221;-52
2021/04/11 02:18:25;;;;;;;1.37;1.20;;;22.80;27.90;;;;;;5032749;28;20230;-52
2021/04/11 02:20:51;;;;;;;1.50;1.40;;;22.80;27.90;;;;;;5032130;28;20210;-54
2021/04/11 02:23:17;;;;;;;1.60;1.40;;;22.80;27.90;;;;;;5033146;28;20222;-51
2021/04/11 02:25:43;;;;;;;3.00;1.50;;;22.80;27.90;;;;;;5033710;28;20198;-54
2021/04/11 02:28:09;;;;;;;1.73;1.63;;;22.80;27.90;;;;;;5032708;28;20222;-52
2021/04/11 02:30:35;;;;;;;2.10;1.50;;;22.80;27.90;;;;;;5032021;28;20218;-53
2021/04/11 02:33:01;;;;;;;1.90;1.77;;;22.80;27.90;;;;;;5031594;28;20222;-51
2021/04/11 02:35:27;;;;;;;1.27;1.17;;;22.80;27.90;;;;;;5033364;28;20198;-49
2021/04/11 02:37:53;;;;;;;8.10;1.97;;;22.80;27.90;;;;;;5032581;28;20355;-49
2021/04/11 02:40:19;;;;;;;1.33;1.23;;;22.80;27.90;;;;;;5032984;28;20210;-54
2021/04/11 02:42:45;;;;;;;1.50;1.40;;;22.80;27.90;;;;;;5030765;28;20543;-56
2021/04/11 02:45:11;;;;;;;1.70;1.40;;;22.80;27.90;;;;;;5031854;28;20259;-56
2021/04/11 02:47:37;;;;;;;5.27;1.60;;;22.80;27.90;;;;;;5031582;28;20213;-52
2021/04/11 02:50:03;;;;;;;2.53;1.70;;;22.80;27.90;;;;;;5028213;28;20210;-56
2021/04/11 02:52:28;;;;;;;1.30;1.20;;;22.80;27.90;;;;;;5031298;28;20226;-53
2021/04/11 02:54:54;;;;;;;1.53;1.30;;;22.80;27.90;;;;;;5031952;28;20658;-57
2021/04/11 02:57:20;;;;;;;1.47;1.37;;;22.80;27.90;;;;;;5033457;28;20558;-56
2021/04/11 02:59:46;;;;;;;1.90;1.60;;;22.80;27.90;;;;;;5029522;28;20245;-56
2021/04/11 03:02:12;;;;;;;4.03;1.30;;;22.80;27.90;;;;;;5032190;28;20217;-56
2021/04/11 03:04:38;;;;;;;1.90;1.50;;;22.80;27.90;;;;;;5032255;28;20214;-54
2021/04/11 03:07:04;;;;;;;1.60;1.50;;;22.80;27.90;;;;;;5033006;28;20217;-54
2021/04/11 03:09:30;;;;;;;2.20;1.47;;;22.80;27.90;;;;;;5031848;28;20608;-56
2021/04/11 03:11:56;;;;;;;1.70;1.40;;;22.80;27.90;;;;;;5032084;28;20312;-53
2021/04/11 03:14:22;;;;;;;3.37;1.30;;;22.80;27.90;;;;;;5031994;28;20213;-53
2021/04/11 03:16:48;;;;;;;1.60;1.50;;;22.80;27.90;;;;;;5032780;28;20223;-56
2021/04/11 03:19:14;;;;;;;1.50;1.40;;;22.80;27.90;;;;;;5031914;28;20239;-56
2021/04/11 03:21:40;;;;;;;1.50;1.33;;;22.80;28.40;;;;;;5030773;28;20264;-56
2021/04/11 03:24:06;;;;;;;1.33;1.23;;;22.80;27.90;;;;;;5032699;28;20567;-55
2021/04/11 03:26:32;;;;;;;1.77;1.30;;;22.80;27.90;;;;;;5031682;28;20280;-56
2021/04/11 03:28:58;;;;;;;1.70;1.10;;;22.80;27.90;;;;;;5029999;28;20216;-55
2021/04/11 03:31:24;;;;;;;1.23;1.13;;;22.80;27.90;;;;;;5030530;28;20232;-53
2021/04/11 03:33:50;;;;;;;1.50;1.40;;;22.80;27.90;;;;;;5031615;28;20206;-57
2021/04/11 03:36:16;;;;;;;1.83;1.20;;;22.80;27.90;;;;;;5031515;28;20210;-54
2021/04/11 03:38:41;;;;;;;1.40;1.30;;;22.80;27.90;;;;;;5031481;28;20514;-57
2021/04/11 03:41:07;;;;;;;1.77;1.40;;;22.80;27.90;;;;;;5030728;28;20209;-56
2021/04/11 03:43:33;;;;;;;2.00;1.80;;;22.80;27.90;;;;;;5032560;28;20210;-53
2021/04/11 03:45:59;;;;;;;1.20;1.10;;;22.80;27.90;;;;;;5031111;28;20205;-56
2021/04/11 03:48:25;;;;;;;1.83;1.17;;;22.80;27.90;;;;;;5032395;28;20677;-55
2021/04/11 03:50:51;;;;;;;1.50;1.40;;;22.80;27.90;;;;;;5030027;28;20267;-55
2021/04/11 03:53:17;;;;;;;2.57;1.30;;;22.80;27.90;;;;;;5031001;28;20209;-53
2021/04/11 03:55:43;;;;;;;1.40;1.30;;;22.80;27.90;;;;;;5029070;28;20210;-54
2021/04/11 03:58:09;;;;;;;3.00;1.27;;;22.80;27.90;;;;;;5031836;28;20225;-54
2021/04/11 04:00:35;;;;;;;1.93;1.30;;;22.80;28.10;;;;;;5030172;28;20612;-54
2021/04/11 04:03:01;;;;;;;1.83;1.30;;;22.80;28.00;;;;;;5026369;28;20250;-54
2021/04/11 04:05:27;;;;;;;2.13;1.37;;;22.80;28.20;;;;;;5030802;28;20246;-55
2021/04/11 04:07:53;;;;;;;1.87;1.23;;;22.80;28.20;;;;;;5030992;28;20243;-54
2021/04/11 04:10:19;;;;;;;2.47;1.40;;;22.80;28.30;;;;;;5030911;28;20206;-54
2021/04/11 04:12:45;;;;;;;1.43;1.33;;;22.80;28.50;;;;;;5029730;28;20593;-54
2021/04/11 04:15:11;;;;;;;1.67;1.57;;;22.80;28.50;;;;;;5031643;28;20209;-56
2021/04/11 04:17:37;;;;;;;3.13;1.50;;;22.80;28.70;;;;;;5030603;28;20256;-55
2021/04/11 04:20:03;;;;;;;1.73;1.33;;;22.80;28.70;;;;;;5030962;28;20209;-55
2021/04/11 04:22:29;;;;;;;2.77;1.50;;;22.80;28.80;;;;;;5030463;28;20269;-56
2021/04/11 04:24:54;;;;;;;2.47;1.90;;;22.80;28.80;;;;;;5030647;28;20247;-54
2021/04/11 04:27:21;;;;;;;1.40;1.30;;;22.80;28.90;;;;;;5030327;28;20203;-55
2021/04/11 04:29:47;;;;;;;1.73;1.30;;;22.80;28.90;;;;;;5027769;28;20198;-53
2021/04/11 04:32:13;;;;;;;2.30;1.37;;;22.80;28.90;;;;;;5027550;28;20226;-55
2021/04/11 04:34:39;;;;;;;2.80;1.30;;;22.80;29.20;;;;;;5031025;28;20210;-54
2021/04/11 04:37:05;;;;;;;1.42;1.33;;;22.80;29.20;;;;;;5030890;28;20194;-52
2021/04/11 04:39:31;;;;;;;1.30;1.20;;;22.80;29.20;;;;;;5030048;28;20743;-50
2021/04/11 04:41:56;;;;;;;4.57;1.63;;;22.80;29.20;;;;;;5030727;28;20228;-52
2021/04/11 04:44:22;;;;;;;3.20;1.60;;;22.80;29.20;;;;;;5029774;28;20212;-54
2021/04/11 04:46:48;;;;;;;1.40;1.30;;;22.80;29.10;;;;;;5030233;28;20205;-54
2021/04/11 04:49:14;;;;;;;3.90;1.47;;;22.80;29.00;;;;;;5030224;28;20216;-56
2021/04/11 04:51:40;;;;;;;2.13;1.50;;;22.80;29.00;;;;;;5030159;28;20214;-53
2021/04/11 04:54:06;;;;;;;2.47;1.20;;;22.80;29.00;;;;;;5029447;28;20222;-57
2021/04/11 04:56:32;;;;;;;1.47;1.37;;;22.80;28.80;;;;;;5029498;28;20198;-55
2021/04/11 04:58:58;;;;;;;1.30;1.20;;;22.80;28.90;;;;;;5029402;28;20232;-53
2021/04/11 05:01:24;;;;;;;2.97;1.50;;;22.80;28.90;;;;;;5030023;28;20222;-54
2021/04/11 05:03:50;;;;;;;1.27;1.17;;;22.80;28.80;;;;;;5029735;28;20199;-56
2021/04/11 05:06:16;;;;;;;1.23;1.13;;;22.80;28.80;;;;;;5030138;28;20213;-54
2021/04/11 05:08:42;;;;;;;1.30;1.20;;;22.80;28.70;;;;;;5029753;28;20307;-55
2021/04/11 05:11:08;;;;;;;1.50;1.20;;;22.80;28.80;;;;;;5028837;28;20287;-56
2021/04/11 05:13:34;;;;;;;2.67;1.45;;;22.80;28.80;;;;;;5029523;28;20213;-55
2021/04/11 05:16:00;;;;;;;1.50;1.40;;;22.80;28.80;;;;;;5029350;28;20214;-52
2021/04/11 05:18:26;;;;;;;1.40;1.30;;;22.80;28.90;;;;;;5029911;28;20225;-53
2021/04/11 05:20:52;;;;;;;1.50;1.40;;;22.80;28.80;;;;;;5028763;28;20757;-53
2021/04/11 05:23:18;;;;;;;1.35;1.25;;;22.80;29.20;;;;;;5029420;28;20205;-54
2021/04/11 05:25:44;;;;;;;1.67;1.50;;;22.80;28.80;;;;;;5029803;28;20264;-53
2021/04/11 05:28:10;;;;;;;1.33;1.23;;;22.80;28.90;;;;;;5030040;28;20213;-56
2021/04/11 05:30:36;;;;;;;2.27;1.30;;;22.80;28.90;;;;;;5029482;28;20601;-53
2021/04/11 05:33:02;;;;;;;1.93;1.53;;;22.80;28.90;;;;;;5030318;28;20210;-54
2021/04/11 05:35:28;;;;;;;1.90;1.30;;;22.80;28.90;;;;;;5028466;28;20210;-52
2021/04/11 05:37:54;;;;;;;2.13;1.33;;;22.80;28.90;;;;;;5029080;28;20256;-55
2021/04/11 05:40:20;;;;;;;3.13;1.40;;;22.80;28.90;;;;;;5028838;28;20220;-52
2021/04/11 05:42:46;;;;;;;1.90;1.30;;;22.80;29.00;;;;;;5030116;28;20207;-53
2021/04/11 05:45:12;;;;;;;1.90;1.47;;;22.80;28.90;;;;;;5030150;28;20289;-52
2021/04/11 05:47:38;;;;;;;1.60;1.37;;;22.80;29.00;;;;;;5027929;28;20203;-51
2021/04/11 05:50:04;;;;;;;1.50;1.40;;;22.80;29.10;;;;;;5030036;28;20658;-55
2021/04/11 05:52:30;;;;;;;1.33;1.20;;;22.80;29.00;;;;;;5028485;28;20229;-54
2021/04/11 05:54:56;;;;;;;1.30;1.20;;;22.80;29.10;;;;;;5033319;28;20205;-55
2021/04/11 05:57:21;;;;;;;1.37;1.27;;;22.80;29.80;;;;;;5030586;28;20278;-51
2021/04/11 05:59:47;;;;;;;1.30;1.20;;;22.80;29.80;;;;;;5033190;28;20225;-52
2021/04/11 06:02:13;;;;;;;3.07;1.33;;;22.80;28.90;;;;;;5032975;28;20237;-55
2021/04/11 06:04:39;;;;;;;2.60;1.20;;;22.80;28.80;;;;;;5027942;28;20205;-53
2021/04/11 06:07:05;;;;;;;2.73;1.07;;;22.80;28.60;;;;;;5032814;28;20568;-56
2021/04/11 06:09:31;;;;;;;1.80;1.10;;;22.80;28.60;;;;;;5032681;28;20218;-55
2021/04/11 06:11:57;;;;;;;1.53;1.37;;;22.80;28.70;;;;;;5031986;28;20236;-54
2021/04/11 06:14:23;;;;;;;1.53;1.30;;;22.80;28.60;;;;;;5034072;28;20262;-53
2021/04/11 06:16:49;;;;;;;1.30;1.20;;;22.80;28.50;;;;;;5032993;28;20706;-53
2021/04/11 06:19:15;;;;;;;1.30;1.20;;;22.80;28.60;;;;;;5032894;28;20300;-48
2021/04/11 06:21:41;;;;;;;2.23;1.53;;;22.80;28.50;;;;;;5032047;28;20630;-55
2021/04/11 06:24:07;;;;;;;1.23;1.13;;;22.80;28.50;;;;;;5032283;28;20205;-53
2021/04/11 06:26:35;;;;;;;1.43;1.33;;;22.80;28.50;;;;;;5033762;28;20203;-54
2021/04/11 06:29:01;;;;;;;1.57;1.30;;;22.80;28.40;;;;;;5032500;28;20304;-54
2021/04/11 06:31:27;;;;;;;1.20;1.10;;;22.80;28.50;;;;;;5031955;28;20235;-52
2021/04/11 06:33:53;;;;;;;1.47;1.37;;;22.80;28.40;;;;;;5032575;28;20208;-51
2021/04/11 06:36:19;;;;;;;1.90;1.30;;;22.80;28.40;;;;;;5032839;28;20725;-57
2021/04/11 06:38:44;;;;;;;1.30;1.20;;;22.80;28.40;;;;;;5031961;28;20232;-51
2021/04/11 06:41:10;;;;;;;1.10;1.00;;;22.80;28.30;;;;;;5030684;28;20245;-49
2021/04/11 06:43:36;;;;;;;1.47;1.20;;;22.80;28.30;;;;;;5028650;28;20202;-53
2021/04/11 06:46:02;;;;;;;1.50;1.20;;;22.80;28.70;;;;;;5029983;28;20206;-48
2021/04/11 06:48:28;;;;;;;2.20;1.20;;;22.90;29.20;;;;;;5031818;28;20279;-52
2021/04/11 06:50:54;;;;;;;3.43;1.30;;;22.90;28.90;;;;;;5029324;28;20667;-51
2021/04/11 06:53:20;;;;;;;2.30;1.40;;;22.90;29.00;;;;;;5031774;28;20232;-58
2021/04/11 06:55:46;;;;;;;2.90;1.40;;;22.90;29.20;;;;;;5031309;28;20210;-59
2021/04/11 06:58:12;;;;;;;1.70;1.50;;;22.90;29.30;;;;;;5031370;28;20234;-58
2021/04/11 07:00:38;;;;;;;2.37;1.97;;;22.90;29.10;;;;;;5029652;28;20215;-58
2021/04/11 07:03:04;;;;;;;1.95;1.20;;;22.80;29.30;;;;;;5030314;28;20214;-58
2021/04/11 07:05:30;;;;;;;5.15;2.25;;;22.80;29.30;;;;;;5027939;28;20217;-58
2021/04/11 07:07:56;;;;;;;2.37;1.20;;;22.80;29.30;;;;;;5032210;28;20206;-58
2021/04/11 07:10:22;;;;;;;1.87;1.30;;;22.80;29.30;;;;;;5032729;28;20702;-58
2021/04/11 07:12:48;;;;;;;1.43;1.20;;;22.80;29.50;;;;;;5031572;28;20260;-56
2021/04/11 07:15:14;;;;;;;5.33;1.23;;;22.80;29.40;;;;;;5031997;28;20213;-58
2021/04/11 07:17:40;;;;;;;1.80;1.33;;;22.80;29.40;;;;;;5031623;28;20205;-55
2021/04/11 07:20:06;;;;;;;2.70;1.55;;;22.80;29.50;;;;;;5032156;28;20295;-57
2021/04/11 07:22:32;;;;;;;2.90;1.47;;;22.80;29.40;;;;;;5028284;28;20296;-60
2021/04/11 07:24:58;;;;;;;2.93;1.50;;;22.90;29.50;;;;;;5026540;28;20208;-55
2021/04/11 07:27:24;;;;;;;2.60;1.57;;;22.90;29.50;;;;;;5031762;28;20276;-60
2021/04/11 07:29:50;;;;;;;2.57;1.27;;;22.90;29.30;;;;;;5030802;28;20203;-59
2021/04/11 07:32:16;;;;;;;2.83;1.60;;;22.90;29.00;;;;;;5031920;28;20206;-59
2021/04/11 07:34:42;;;;;;;4.10;2.07;;;22.90;29.50;;;;;;5028308;28;20597;-62
2021/04/11 07:37:08;;;;;;;5.60;2.50;;;22.90;27.90;;;;;;5029371;28;20217;-62
2021/04/11 07:39:34;;;;;;;2.37;1.70;;;22.50;26.50;;;;;;5028608;28;20226;-61
2021/04/11 07:41:59;;;;;;;2.93;1.90;;;22.20;25.00;;;;;;5023487;28;20278;-62
2021/04/11 07:44:25;;;;;;;3.97;2.20;;;22.00;22.40;;;;;;5029826;28;20209;-62
2021/04/11 07:46:51;;;;;;;2.10;1.90;;;21.90;24.10;;;;;;5031814;28;20213;-63
2021/04/11 07:49:17;;;;;;;3.60;1.80;;;22.10;24.30;;;;;;5030061;28;20674;-62
2021/04/11 07:51:43;;;;;;;3.67;1.80;;;22.30;24.50;;;;;;5030413;28;20268;-61
2021/04/11 07:54:09;;;;;;;1.93;1.77;;;22.40;24.80;;;;;;5018688;28;20257;-62
2021/04/11 07:56:35;;;;;;;3.80;1.50;;;22.50;25.20;;;;;;5012296;28;20206;-62
2021/04/11 07:59:01;;;;;;;1.60;1.50;;;22.60;25.50;;;;;;5025730;28;20230;-63
2021/04/11 08:01:27;;;;;;;2.40;2.00;;;22.60;25.80;;;;;;5030014;28;20225;-63
2021/04/11 08:03:53;;;;;;;1.83;1.73;;;22.70;26.10;;;;;;5030608;28;20205;-63
2021/04/11 08:06:19;;;;;;;2.37;1.50;;;22.70;26.10;;;;;;5030654;28;20204;-63
2021/04/11 08:08:45;;;;;;;1.87;1.67;;;22.70;26.30;;;;;;5031455;28;20216;-62
2021/04/11 08:11:11;;;;;;;2.63;1.70;;;22.70;26.30;;;;;;5029634;28;20229;-62
2021/04/11 08:13:37;;;;;;;1.40;1.30;;;22.70;26.40;;;;;;5030166;28;20642;-63
2021/04/11 08:16:03;;;;;;;2.67;1.70;;;22.70;26.50;;;;;;5028965;28;20495;-63
2021/04/11 08:18:29;;;;;;;3.30;2.13;;;22.80;26.60;;;;;;5026265;28;20225;-62
2021/04/11 08:20:55;;;;;;;2.60;1.70;;;22.80;26.60;;;;;;5029746;28;20221;-63
2021/04/11 08:23:21;;;;;;;1.77;1.50;;;22.80;26.70;;;;;;5026460;28;20600;-55
2021/04/11 08:25:47;;;;;;;2.60;1.70;;;22.80;26.50;;;;;;5027952;28;20201;-48
2021/04/11 08:28:13;;;;;;;2.17;1.80;;;22.90;26.50;;;;;;5028514;28;20214;-49
2021/04/11 08:30:39;;;;;;;1.70;1.60;;;22.90;26.00;;;;;;5026490;28;20343;-51
2021/04/11 08:33:05;;;;;;;2.03;1.27;;;22.90;25.00;;;;;;5027665;28;20289;-49
2021/04/11 08:35:30;;;;;;;2.00;1.60;;;22.80;24.70;;;;;;5023834;28;20641;-59
2021/04/11 08:37:56;;;;;;;1.57;1.47;;;22.80;24.90;;;;;;5031204;28;20562;-59
2021/04/11 08:40:22;;;;;;;2.67;1.70;;;22.80;25.40;;;;;;5029204;28;20225;-59
2021/04/11 08:42:48;;;;;;;2.00;1.70;;;22.80;25.80;;;;;;5028322;28;20210;-59
2021/04/11 08:45:14;;;;;;;2.50;1.60;;;22.80;26.10;;;;;;5021950;28;20214;-59
2021/04/11 08:47:40;;;;;;;1.60;1.50;;;22.80;26.20;;;;;;5025993;28;20203;-59
2021/04/11 08:50:06;;;;;;;3.90;2.00;;;22.80;26.10;;;;;;5020039;28;20229;-59
2021/04/11 08:52:32;;;;;;;1.70;1.60;;;22.80;26.10;;;;;;5028318;28;20246;-55
2021/04/11 08:54:58;;;;;;;1.90;1.40;;;22.80;26.10;;;;;;5030927;28;20617;-58
2021/04/11 08:57:24;;;;;;;1.67;1.40;;;22.90;26.30;;;;;;5031131;28;20347;-59
2021/04/11 08:59:50;;;;;;;1.60;1.50;;;22.80;26.20;;;;;;5030317;28;20691;-58
2021/04/11 09:02:16;;;;;;;1.70;1.60;;;22.80;26.20;;;;;;5030893;28;20202;-59
2021/04/11 09:04:42;;;;;;;2.23;1.50;;;22.80;25.90;;;;;;5030556;28;20232;-57
2021/04/11 09:07:08;;;;;;;2.03;1.40;;;22.80;25.90;;;;;;5030498;28;20216;-58
2021/04/11 09:09:34;;;;;;;2.53;1.77;;;22.80;25.90;;;;;;5030865;28;20229;-57
2021/04/11 09:12:00;;;;;;;1.90;1.70;;;22.80;25.90;;;;;;5030594;28;20213;-58
2021/04/11 09:14:26;;;;;;;1.70;1.40;;;22.80;26.00;;;;;;5030743;28;20567;-58
2021/04/11 09:16:52;;;;;;;1.50;1.40;;;22.80;26.00;;;;;;5030444;28;20340;-59
2021/04/11 09:19:18;;;;;;;1.63;1.27;;;22.80;26.20;;;;;;5020512;28;20237;-58
2021/04/11 09:21:43;;;;;;;1.60;1.40;;;22.80;26.20;;;;;;5022835;28;20206;-58
2021/04/11 09:24:09;;;;;;;1.93;1.30;;;22.80;26.10;;;;;;5030998;28;20696;-58
2021/04/11 09:26:35;;;;;;;1.50;1.37;;;22.80;26.30;;;;;;5030271;28;20614;-58
2021/04/11 09:29:01;;;;;;;1.93;1.63;;;22.80;26.20;;;;;;5034575;28;20256;-58
2021/04/11 09:31:27;;;;;;;1.47;1.37;;;22.80;26.40;;;;;;5033818;28;20236;-59
2021/04/11 09:33:53;;;;;;;1.97;1.50;;;22.80;26.60;;;;;;5034081;28;20210;-59
2021/04/11 09:36:19;;;;;;;1.63;1.40;;;22.80;26.60;;;;;;5025361;28;20202;-59
2021/04/11 09:38:45;;;;;;;1.63;1.50;;;22.90;26.70;;;;;;5014340;28;20605;-58
2021/04/11 09:41:11;;;;;;;2.07;1.50;;;22.90;26.70;;;;;;5013835;28;20237;-58
2021/04/11 09:43:37;;;;;;;1.50;1.40;;;22.90;26.80;;;;;;5031025;28;20222;-58
2021/04/11 09:46:03;;;;;;;2.40;1.30;;;22.90;26.80;;;;;;5032467;28;20202;-59
2021/04/11 09:48:29;;;;;;;2.43;1.30;;;22.90;26.70;;;;;;5019375;28;20245;-58
2021/04/11 09:50:55;;;;;;;3.17;1.47;;;22.90;26.60;;;;;;5018694;28;20233;-61
2021/04/11 09:53:21;;;;;;;3.10;1.40;;;22.90;26.40;;;;;;5028443;28;20213;-60
2021/04/11 09:55:47;;;;;;;3.93;1.50;;;22.90;26.20;;;;;;5033257;28;20260;-59
2021/04/11 09:58:13;;;;;;;1.97;1.33;;;22.90;25.80;;;;;;5033696;28;20228;-60
2021/04/11 10:00:39;;;;;;;1.40;1.30;;;22.90;25.40;;;;;;5031451;28;20593;-60
2021/04/11 10:03:05;;;;;;;2.50;1.37;;;22.80;25.20;;;;;;5032693;28;20202;-60
2021/04/11 10:05:31;;;;;;;1.40;1.17;;;22.80;24.90;;;;;;5032688;28;20210;-60
2021/04/11 10:07:57;;;;;;;1.65;1.50;;;22.80;24.60;;;;;;5032076;28;20194;-60
2021/04/11 10:10:22;;;;;;;1.38;1.10;;;22.80;24.80;;;;;;5030497;28;20697;-60
2021/04/11 10:12:48;;;;;;;1.40;1.30;;;22.80;24.70;;;;;;5031077;28;20201;-60
2021/04/11 10:15:14;;;;;;;2.30;1.40;;;22.80;24.70;;;;;;5030413;28;20210;-60
2021/04/11 10:17:40;;;;;;;1.60;1.50;;;22.80;24.50;;;;;;5032281;28;20213;-59
2021/04/11 10:20:06;;;;;;;2.87;1.23;;;22.80;24.60;;;;;;5031941;28;20308;-60
2021/04/11 10:22:32;;;;;;;1.30;1.20;;;22.80;24.80;;;;;;5032274;28;20683;-57
2021/04/11 10:24:58;;;;;;;1.37;1.23;;;22.80;24.80;;;;;;5032663;28;20210;-59
2021/04/11 10:27:24;;;;;;;1.50;1.33;;;22.90;24.80;;;;;;5027316;28;20213;-60
2021/04/11 10:29:50;;;;;;;1.40;1.30;;;22.80;24.70;;;;;;5030124;28;20293;-59
2021/04/11 10:32:16;;;;;;;2.87;1.40;;;22.80;24.90;;;;;;5032166;28;20296;-59
2021/04/11 10:34:42;;;;;;;3.17;1.47;;;22.80;24.90;;;;;;5031850;28;20205;-59
2021/04/11 10:37:08;;;;;;;1.17;1.07;;;22.80;24.60;;;;;;5023658;28;20290;-60
2021/04/11 10:39:34;;;;;;;1.50;1.40;;;22.80;24.10;;;;;;5030378;28;20341;-60
2021/04/11 10:42:00;;;;;;;1.50;1.40;;;22.80;24.60;;;;;;5024912;28;20195;-59
2021/04/11 10:44:26;;;;;;;2.20;1.20;;;22.80;24.00;;;;;;5028118;28;20298;-59
2021/04/11 10:46:52;;;;;;;1.55;1.20;;;22.80;24.30;;;;;;5030992;28;20648;-58
2021/04/11 10:49:18;;;;;;;1.60;1.20;;;22.80;24.20;;;;;;5023618;28;20218;-59
2021/04/11 10:51:44;;;;;;;1.87;1.17;;;22.80;24.10;;;;;;5027486;28;20199;-60
2021/04/11 10:54:10;;;;;;;1.40;1.30;;;22.90;24.20;;;;;;5042379;23;20203;-59
2021/04/11 10:56:36;;;;;;;3.23;1.40;;;22.90;24.70;;;;;;4986327;28;20841;-62
2021/04/11 10:59:02;;;;;;;1.17;1.17;;;23.00;25.10;;;;;;4999828;28;20249;-53
2021/04/11 11:01:28;;;;;;;1.43;1.20;;;22.90;24.40;;;;;;5010370;28;20257;-54
2021/04/11 11:03:55;;;;;;;1.02;1.00;;;23.00;24.70;;;;;;5011819;28;20209;-52
2021/04/11 11:06:21;;;;;;;1.40;1.30;;;22.90;24.80;;;;;;5012618;28;20290;-49
2021/04/11 11:08:47;;;;;;;1.30;1.20;;;23.00;25.30;;;;;;5011646;28;20720;-52
2021/04/11 11:11:13;;;;;;;1.20;1.10;;;23.00;25.70;;;;;;5011018;28;20203;-50
2021/04/11 11:13:39;;;;;;;1.40;1.00;;;23.00;25.70;;;;;;5011569;28;20215;-50
2021/04/11 11:16:05;;;;;;;1.30;1.10;;;23.00;25.70;;;;;;5007430;28;20216;-54
2021/04/11 11:18:31;;;;;;;1.75;1.05;;;22.90;25.70;;;;;;5009099;28;20326;-49
2021/04/11 11:20:57;;;;;;;1.17;1.08;;;22.90;26.00;;;;;;5008769;28;20707;-54
2021/04/11 11:23:23;;;;;;;0.90;0.90;;;22.90;25.70;;;;;;5010666;28;20603;-54
2021/04/11 11:25:49;;;;;;;1.40;1.10;;;22.90;25.50;;;;;;5008373;28;20211;-52
2021/04/11 11:28:14;;;;;;;1.13;1.10;;;22.90;25.70;;;;;;5008710;28;20224;-49
2021/04/11 11:30:40;;;;;;;1.90;1.20;;;22.90;25.50;;;;;;5003848;28;20617;-53
2021/04/11 11:33:06;;;;;;;1.33;1.10;;;22.90;25.60;;;;;;5010467;28;20215;-54
2021/04/11 11:35:32;;;;;;;1.10;1.08;;;22.90;25.10;;;;;;5010263;28;20206;-56
2021/04/11 11:37:58;;;;;;;0.95;0.95;;;22.90;25.20;;;;;;5011057;28;20605;-56
2021/04/11 11:40:24;;;;;;;1.02;1.02;;;22.90;25.50;;;;;;5011241;28;20262;-53
2021/04/11 11:42:50;;;;;;;1.00;1.00;;;22.90;25.60;;;;;;5011427;28;20210;-51
2021/04/11 11:45:16;;;;;;;1.20;1.10;;;22.90;25.60;;;;;;5011831;28;20714;-52
2021/04/11 11:47:42;;;;;;;1.00;1.00;;;22.90;25.70;;;;;;5007867;28;20363;-52
2021/04/11 11:50:08;;;;;;;2.83;1.20;;;22.90;25.70;;;;;;5007383;28;20285;-54
2021/04/11 11:52:34;;;;;;;1.53;1.10;;;22.90;25.50;;;;;;5011100;28;20512;-51
2021/04/11 11:55:00;;;;;;;1.25;1.17;;;22.90;25.50;;;;;;5010971;28;20218;-53
2021/04/11 11:57:26;;;;;;;7.55;2.28;;;22.90;25.30;;;;;;5008849;28;20290;-53
2021/04/11 11:59:52;;;;;;;146.05;46.30;;;23.00;25.60;;;;;;5009287;28;20691;-51
2021/04/11 12:02:18;;;;;;;255.13;106.27;;;22.90;25.60;;;;;;5010378;28;20222;-53
2021/04/11 12:04:44;;;;;;;163.43;66.70;;;23.00;26.00;;;;;;5009986;28;20209;-54
2021/04/11 12:07:11;;;;;;;162.83;69.03;;;23.00;26.00;;;;;;5011604;28;20214;-52
2021/04/11 12:09:37;;;;;;;120.10;53.40;;;23.00;25.90;;;;;;5009435;28;20238;-51
2021/04/11 12:12:03;;;;;;;109.17;41.37;;;22.90;25.40;;;;;;5008112;28;20199;-49
2021/04/11 12:14:29;;;;;;;82.07;32.20;;;22.90;25.00;;;;;;5010900;28;20621;-52
2021/04/11 12:16:55;;;;;;;59.50;26.15;;;22.90;24.30;;;;;;5010434;28;20199;-55
2021/04/11 12:19:21;;;;;;;50.87;22.53;;;22.90;24.10;;;;;;5008637;28;20345;-55
2021/04/11 12:21:47;;;;;;;35.65;17.88;;;22.90;23.80;;;;;;5009050;28;20640;-51
2021/04/11 12:24:13;;;;;;;34.25;14.98;;;22.90;23.40;;;;;;5010710;28;20234;-53
2021/04/11 12:26:40;;;;;;;25.83;14.02;;;22.90;23.10;;;;;;5010579;28;20199;-55
2021/04/11 12:29:06;;;;;;;19.65;10.68;;;22.80;22.90;;;;;;5009478;28;20227;-55
2021/04/11 12:31:32;;;;;;;16.67;9.18;;;22.80;22.70;;;;;;5010132;28;20249;-50
2021/04/11 12:33:58;;;;;;;14.27;7.30;;;22.80;22.50;;;;;;5009784;28;20262;-51
2021/04/11 12:36:24;;;;;;;10.95;6.03;;;22.80;22.20;;;;;;5007331;28;20200;-54
2021/04/11 12:38:50;;;;;;;8.77;4.80;;;22.80;22.20;;;;;;5008569;28;20230;-55